sensor_id;sensor_type;location;lat;lon;timestamp;P1;durP1;ratioP1;P2;durP2;ratioP2
67195;SDS011;54122;53.538;49.366;2023-04-03T00:02:19;10.02;;;3.00;;
67195;SDS011;54122;53.538;49.366;2023-04-03T00:04:45;11.57;;;3.25;;
67195;SDS011;54122;53.538;49.366;2023-04-03T00:07:12;13.98;;;2.65;;
67195;SDS011;54122;53.538;49.366;2023-04-03T00:09:40;18.73;;;3.60;;
67195;SDS011;54122;53.538;49.366;2023-04-03T00:12:06;9.20;;;2.88;;
67195;SDS011;54122;53.538;49.366;2023-04-03T00:14:33;11.98;;;2.63;;
67195;SDS011;54122;53.538;49.366;2023-04-03T00:16:59;11.15;;;2.83;;
67195;SDS011;54122;53.538;49.366;2023-04-03T00:19:25;8.27;;;2.80;;
67195;SDS011;54122;53.538;49.366;2023-04-03T00:21:52;8.20;;;3.03;;
67195;SDS011;54122;53.538;49.366;2023-04-03T00:24:19;12.05;;;3.45;;
67195;SDS011;54122;53.538;49.366;2023-04-03T00:26:45;9.32;;;2.40;;
67195;SDS011;54122;53.538;49.366;2023-04-03T00:29:11;11.02;;;2.67;;
67195;SDS011;54122;53.538;49.366;2023-04-03T00:31:38;6.97;;;2.50;;
67195;SDS011;54122;53.538;49.366;2023-04-03T00:34:04;9.70;;;2.95;;
67195;SDS011;54122;53.538;49.366;2023-04-03T00:36:31;9.07;;;2.83;;
67195;SDS011;54122;53.538;49.366;2023-04-03T00:38:57;19.98;;;3.03;;
67195;SDS011;54122;53.538;49.366;2023-04-03T00:41:24;8.40;;;3.10;;
67195;SDS011;54122;53.538;49.366;2023-04-03T00:43:51;19.30;;;3.60;;
67195;SDS011;54122;53.538;49.366;2023-04-03T00:46:18;10.35;;;3.08;;
67195;SDS011;54122;53.538;49.366;2023-04-03T00:48:46;19.77;;;3.83;;
67195;SDS011;54122;53.538;49.366;2023-04-03T00:51:17;15.75;;;2.63;;
67195;SDS011;54122;53.538;49.366;2023-04-03T00:53:53;14.93;;;3.05;;
67195;SDS011;54122;53.538;49.366;2023-04-03T00:56:23;15.90;;;3.13;;
67195;SDS011;54122;53.538;49.366;2023-04-03T00:58:55;6.60;;;2.45;;
67195;SDS011;54122;53.538;49.366;2023-04-03T01:01:28;11.80;;;3.10;;
67195;SDS011;54122;53.538;49.366;2023-04-03T01:03:56;13.48;;;2.75;;
67195;SDS011;54122;53.538;49.366;2023-04-03T01:06:29;24.23;;;2.80;;
67195;SDS011;54122;53.538;49.366;2023-04-03T01:08:58;14.10;;;3.30;;
67195;SDS011;54122;53.538;49.366;2023-04-03T01:11:25;7.13;;;2.85;;
67195;SDS011;54122;53.538;49.366;2023-04-03T01:13:52;12.95;;;2.95;;
67195;SDS011;54122;53.538;49.366;2023-04-03T01:16:22;9.02;;;3.22;;
67195;SDS011;54122;53.538;49.366;2023-04-03T01:18:48;9.57;;;2.92;;
67195;SDS011;54122;53.538;49.366;2023-04-03T01:24:44;10.88;;;3.13;;
67195;SDS011;54122;53.538;49.366;2023-04-03T01:27:07;16.05;;;3.85;;
67195;SDS011;54122;53.538;49.366;2023-04-03T01:29:36;16.95;;;3.03;;
67195;SDS011;54122;53.538;49.366;2023-04-03T01:32:03;19.88;;;3.17;;
67195;SDS011;54122;53.538;49.366;2023-04-03T01:34:30;23.60;;;3.97;;
67195;SDS011;54122;53.538;49.366;2023-04-03T01:36:57;25.50;;;6.47;;
67195;SDS011;54122;53.538;49.366;2023-04-03T01:39:24;15.82;;;4.82;;
67195;SDS011;54122;53.538;49.366;2023-04-03T01:41:50;42.80;;;9.80;;
67195;SDS011;54122;53.538;49.366;2023-04-03T01:44:17;47.20;;;10.02;;
67195;SDS011;54122;53.538;49.366;2023-04-03T01:46:44;42.03;;;9.88;;
67195;SDS011;54122;53.538;49.366;2023-04-03T01:49:10;22.00;;;6.75;;
67195;SDS011;54122;53.538;49.366;2023-04-03T01:51:37;18.10;;;5.47;;
67195;SDS011;54122;53.538;49.366;2023-04-03T01:54:03;17.15;;;3.95;;
67195;SDS011;54122;53.538;49.366;2023-04-03T01:56:29;11.65;;;4.10;;
67195;SDS011;54122;53.538;49.366;2023-04-03T01:58:56;9.32;;;3.42;;
67195;SDS011;54122;53.538;49.366;2023-04-03T02:01:23;12.57;;;3.97;;
67195;SDS011;54122;53.538;49.366;2023-04-03T02:03:49;16.45;;;5.30;;
67195;SDS011;54122;53.538;49.366;2023-04-03T02:06:15;11.07;;;4.20;;
67195;SDS011;54122;53.538;49.366;2023-04-03T02:08:42;13.13;;;3.20;;
67195;SDS011;54122;53.538;49.366;2023-04-03T02:11:08;10.90;;;3.90;;
67195;SDS011;54122;53.538;49.366;2023-04-03T02:13:35;21.77;;;10.38;;
67195;SDS011;54122;53.538;49.366;2023-04-03T02:16:08;20.77;;;10.05;;
67195;SDS011;54122;53.538;49.366;2023-04-03T02:18:36;8.85;;;3.40;;
67195;SDS011;54122;53.538;49.366;2023-04-03T02:21:03;13.00;;;3.47;;
67195;SDS011;54122;53.538;49.366;2023-04-03T02:23:29;9.27;;;4.25;;
67195;SDS011;54122;53.538;49.366;2023-04-03T02:26:29;11.05;;;2.95;;
67195;SDS011;54122;53.538;49.366;2023-04-03T02:28:48;7.75;;;2.88;;
67195;SDS011;54122;53.538;49.366;2023-04-03T02:31:15;14.38;;;3.53;;
67195;SDS011;54122;53.538;49.366;2023-04-03T02:33:41;15.05;;;3.08;;
67195;SDS011;54122;53.538;49.366;2023-04-03T02:36:08;9.68;;;2.78;;
67195;SDS011;54122;53.538;49.366;2023-04-03T02:38:35;5.18;;;2.22;;
67195;SDS011;54122;53.538;49.366;2023-04-03T02:41:06;12.88;;;2.33;;
67195;SDS011;54122;53.538;49.366;2023-04-03T02:43:34;11.88;;;2.75;;
67195;SDS011;54122;53.538;49.366;2023-04-03T02:46:00;20.65;;;2.38;;
67195;SDS011;54122;53.538;49.366;2023-04-03T02:48:27;12.40;;;2.00;;
67195;SDS011;54122;53.538;49.366;2023-04-03T02:50:53;22.33;;;3.25;;
67195;SDS011;54122;53.538;49.366;2023-04-03T02:53:21;5.75;;;2.55;;
67195;SDS011;54122;53.538;49.366;2023-04-03T02:55:48;13.38;;;2.60;;
67195;SDS011;54122;53.538;49.366;2023-04-03T02:58:15;13.68;;;2.55;;
67195;SDS011;54122;53.538;49.366;2023-04-03T03:00:41;13.88;;;2.55;;
67195;SDS011;54122;53.538;49.366;2023-04-03T03:03:08;5.93;;;2.35;;
67195;SDS011;54122;53.538;49.366;2023-04-03T03:05:35;7.57;;;2.08;;
67195;SDS011;54122;53.538;49.366;2023-04-03T03:08:01;9.30;;;2.28;;
67195;SDS011;54122;53.538;49.366;2023-04-03T03:10:28;14.80;;;2.92;;
67195;SDS011;54122;53.538;49.366;2023-04-03T03:12:54;19.58;;;3.08;;
67195;SDS011;54122;53.538;49.366;2023-04-03T03:15:21;10.93;;;2.50;;
67195;SDS011;54122;53.538;49.366;2023-04-03T03:17:47;8.18;;;2.17;;
67195;SDS011;54122;53.538;49.366;2023-04-03T03:20:13;5.32;;;2.28;;
67195;SDS011;54122;53.538;49.366;2023-04-03T03:22:40;17.08;;;2.63;;
67195;SDS011;54122;53.538;49.366;2023-04-03T03:25:07;13.18;;;1.90;;
67195;SDS011;54122;53.538;49.366;2023-04-03T03:27:34;13.68;;;1.95;;
67195;SDS011;54122;53.538;49.366;2023-04-03T03:30:00;41.08;;;2.03;;
67195;SDS011;54122;53.538;49.366;2023-04-03T03:32:27;11.98;;;1.55;;
67195;SDS011;54122;53.538;49.366;2023-04-03T03:34:53;9.75;;;1.83;;
67195;SDS011;54122;53.538;49.366;2023-04-03T03:37:20;8.75;;;2.03;;
67195;SDS011;54122;53.538;49.366;2023-04-03T03:39:46;14.77;;;1.73;;
67195;SDS011;54122;53.538;49.366;2023-04-03T03:42:12;7.57;;;2.13;;
67195;SDS011;54122;53.538;49.366;2023-04-03T03:44:39;11.45;;;1.40;;
67195;SDS011;54122;53.538;49.366;2023-04-03T03:47:05;11.80;;;1.90;;
67195;SDS011;54122;53.538;49.366;2023-04-03T03:49:32;8.48;;;1.65;;
67195;SDS011;54122;53.538;49.366;2023-04-03T03:51:59;10.57;;;1.60;;
67195;SDS011;54122;53.538;49.366;2023-04-03T03:54:25;14.65;;;1.40;;
67195;SDS011;54122;53.538;49.366;2023-04-03T03:56:51;15.60;;;1.85;;
67195;SDS011;54122;53.538;49.366;2023-04-03T03:59:17;7.00;;;1.63;;
67195;SDS011;54122;53.538;49.366;2023-04-03T04:01:43;29.65;;;1.77;;
67195;SDS011;54122;53.538;49.366;2023-04-03T04:04:10;19.98;;;2.50;;
67195;SDS011;54122;53.538;49.366;2023-04-03T04:06:38;24.73;;;1.80;;
67195;SDS011;54122;53.538;49.366;2023-04-03T04:09:10;29.58;;;2.00;;
67195;SDS011;54122;53.538;49.366;2023-04-03T04:11:37;11.30;;;1.73;;
67195;SDS011;54122;53.538;49.366;2023-04-03T04:14:21;9.35;;;1.30;;
67195;SDS011;54122;53.538;49.366;2023-04-03T04:16:47;10.07;;;1.55;;
67195;SDS011;54122;53.538;49.366;2023-04-03T04:19:14;23.10;;;1.45;;
67195;SDS011;54122;53.538;49.366;2023-04-03T04:21:40;12.48;;;1.35;;
67195;SDS011;54122;53.538;49.366;2023-04-03T04:24:07;5.47;;;1.40;;
67195;SDS011;54122;53.538;49.366;2023-04-03T04:26:34;12.07;;;1.58;;
67195;SDS011;54122;53.538;49.366;2023-04-03T04:29:00;26.13;;;1.55;;
67195;SDS011;54122;53.538;49.366;2023-04-03T04:31:26;8.02;;;1.20;;
67195;SDS011;54122;53.538;49.366;2023-04-03T04:33:53;18.88;;;1.60;;
67195;SDS011;54122;53.538;49.366;2023-04-03T04:39:05;20.52;;;1.58;;
67195;SDS011;54122;53.538;49.366;2023-04-03T04:41:49;9.18;;;1.50;;
67195;SDS011;54122;53.538;49.366;2023-04-03T04:44:16;15.02;;;1.42;;
67195;SDS011;54122;53.538;49.366;2023-04-03T04:46:42;9.68;;;1.10;;
67195;SDS011;54122;53.538;49.366;2023-04-03T04:49:08;9.38;;;1.10;;
67195;SDS011;54122;53.538;49.366;2023-04-03T04:51:53;10.32;;;1.38;;
67195;SDS011;54122;53.538;49.366;2023-04-03T04:54:19;8.38;;;1.60;;
67195;SDS011;54122;53.538;49.366;2023-04-03T04:57:04;19.17;;;1.55;;
67195;SDS011;54122;53.538;49.366;2023-04-03T04:59:30;13.45;;;1.50;;
67195;SDS011;54122;53.538;49.366;2023-04-03T05:01:56;10.73;;;1.55;;
67195;SDS011;54122;53.538;49.366;2023-04-03T05:04:23;13.25;;;1.23;;
67195;SDS011;54122;53.538;49.366;2023-04-03T05:06:49;7.30;;;1.45;;
67195;SDS011;54122;53.538;49.366;2023-04-03T05:09:15;19.80;;;1.80;;
67195;SDS011;54122;53.538;49.366;2023-04-03T05:12:00;8.35;;;1.10;;
67195;SDS011;54122;53.538;49.366;2023-04-03T05:14:29;7.63;;;1.25;;
67195;SDS011;54122;53.538;49.366;2023-04-03T05:16:57;8.30;;;1.42;;
67195;SDS011;54122;53.538;49.366;2023-04-03T05:19:23;9.65;;;1.48;;
67195;SDS011;54122;53.538;49.366;2023-04-03T05:21:49;16.88;;;1.48;;
67195;SDS011;54122;53.538;49.366;2023-04-03T05:24:16;19.52;;;1.30;;
67195;SDS011;54122;53.538;49.366;2023-04-03T05:26:43;9.63;;;1.40;;
67195;SDS011;54122;53.538;49.366;2023-04-03T05:29:10;21.95;;;1.67;;
67195;SDS011;54122;53.538;49.366;2023-04-03T05:31:37;21.20;;;1.70;;
67195;SDS011;54122;53.538;49.366;2023-04-03T05:34:04;9.77;;;1.30;;
67195;SDS011;54122;53.538;49.366;2023-04-03T05:36:30;14.55;;;1.80;;
67195;SDS011;54122;53.538;49.366;2023-04-03T05:41:41;9.65;;;1.35;;
67195;SDS011;54122;53.538;49.366;2023-04-03T05:44:07;10.55;;;1.48;;
67195;SDS011;54122;53.538;49.366;2023-04-03T05:46:33;8.60;;;1.45;;
67195;SDS011;54122;53.538;49.366;2023-04-03T05:48:59;14.68;;;1.40;;
67195;SDS011;54122;53.538;49.366;2023-04-03T05:51:28;15.13;;;1.25;;
67195;SDS011;54122;53.538;49.366;2023-04-03T05:54:11;14.13;;;1.57;;
67195;SDS011;54122;53.538;49.366;2023-04-03T05:56:58;14.73;;;2.05;;
67195;SDS011;54122;53.538;49.366;2023-04-03T05:59:44;17.35;;;1.38;;
67195;SDS011;54122;53.538;49.366;2023-04-03T06:04:56;25.40;;;2.22;;
67195;SDS011;54122;53.538;49.366;2023-04-03T06:07:23;16.83;;;1.55;;
67195;SDS011;54122;53.538;49.366;2023-04-03T06:09:54;9.90;;;1.73;;
67195;SDS011;54122;53.538;49.366;2023-04-03T06:12:21;20.50;;;2.05;;
67195;SDS011;54122;53.538;49.366;2023-04-03T06:14:48;11.55;;;1.80;;
67195;SDS011;54122;53.538;49.366;2023-04-03T06:17:35;23.65;;;2.45;;
67195;SDS011;54122;53.538;49.366;2023-04-03T06:20:03;20.35;;;2.03;;
67195;SDS011;54122;53.538;49.366;2023-04-03T06:22:30;15.98;;;1.92;;
67195;SDS011;54122;53.538;49.366;2023-04-03T06:24:56;14.82;;;1.70;;
67195;SDS011;54122;53.538;49.366;2023-04-03T06:27:23;18.63;;;2.00;;
67195;SDS011;54122;53.538;49.366;2023-04-03T06:29:49;20.40;;;2.63;;
67195;SDS011;54122;53.538;49.366;2023-04-03T06:32:15;16.63;;;3.17;;
67195;SDS011;54122;53.538;49.366;2023-04-03T06:34:42;24.48;;;2.70;;
67195;SDS011;54122;53.538;49.366;2023-04-03T06:37:27;20.38;;;2.15;;
67195;SDS011;54122;53.538;49.366;2023-04-03T06:39:54;14.07;;;2.10;;
67195;SDS011;54122;53.538;49.366;2023-04-03T06:42:20;21.15;;;2.40;;
67195;SDS011;54122;53.538;49.366;2023-04-03T06:44:47;20.02;;;2.60;;
67195;SDS011;54122;53.538;49.366;2023-04-03T06:47:13;21.80;;;2.10;;
67195;SDS011;54122;53.538;49.366;2023-04-03T06:49:41;12.18;;;1.83;;
67195;SDS011;54122;53.538;49.366;2023-04-03T06:52:09;19.67;;;2.20;;
67195;SDS011;54122;53.538;49.366;2023-04-03T06:54:54;18.33;;;2.30;;
67195;SDS011;54122;53.538;49.366;2023-04-03T06:57:23;25.15;;;2.15;;
67195;SDS011;54122;53.538;49.366;2023-04-03T06:59:49;19.98;;;2.10;;
67195;SDS011;54122;53.538;49.366;2023-04-03T07:02:16;14.73;;;1.60;;
67195;SDS011;54122;53.538;49.366;2023-04-03T07:04:43;24.13;;;1.98;;
67195;SDS011;54122;53.538;49.366;2023-04-03T07:07:09;12.60;;;1.27;;
67195;SDS011;54122;53.538;49.366;2023-04-03T07:09:36;27.08;;;1.70;;
67195;SDS011;54122;53.538;49.366;2023-04-03T07:12:02;8.65;;;1.77;;
67195;SDS011;54122;53.538;49.366;2023-04-03T07:14:28;12.32;;;2.30;;
67195;SDS011;54122;53.538;49.366;2023-04-03T07:16:54;42.25;;;2.10;;
67195;SDS011;54122;53.538;49.366;2023-04-03T07:19:21;26.75;;;2.15;;
67195;SDS011;54122;53.538;49.366;2023-04-03T07:21:47;16.17;;;2.10;;
67195;SDS011;54122;53.538;49.366;2023-04-03T07:24:13;14.77;;;1.77;;
67195;SDS011;54122;53.538;49.366;2023-04-03T07:26:39;23.80;;;2.03;;
67195;SDS011;54122;53.538;49.366;2023-04-03T07:29:06;15.13;;;1.60;;
67195;SDS011;54122;53.538;49.366;2023-04-03T07:31:32;14.57;;;1.77;;
67195;SDS011;54122;53.538;49.366;2023-04-03T07:33:59;28.75;;;2.10;;
67195;SDS011;54122;53.538;49.366;2023-04-03T07:36:25;25.65;;;2.08;;
67195;SDS011;54122;53.538;49.366;2023-04-03T07:38:51;19.33;;;2.33;;
67195;SDS011;54122;53.538;49.366;2023-04-03T07:41:18;22.25;;;1.83;;
67195;SDS011;54122;53.538;49.366;2023-04-03T07:43:46;17.75;;;1.50;;
67195;SDS011;54122;53.538;49.366;2023-04-03T07:46:15;18.17;;;1.80;;
67195;SDS011;54122;53.538;49.366;2023-04-03T07:48:43;26.42;;;1.67;;
67195;SDS011;54122;53.538;49.366;2023-04-03T07:51:09;34.15;;;2.15;;
67195;SDS011;54122;53.538;49.366;2023-04-03T07:54:13;31.98;;;2.15;;
67195;SDS011;54122;53.538;49.366;2023-04-03T07:56:40;16.55;;;1.85;;
67195;SDS011;54122;53.538;49.366;2023-04-03T07:59:08;21.05;;;1.75;;
67195;SDS011;54122;53.538;49.366;2023-04-03T08:01:36;20.10;;;2.10;;
67195;SDS011;54122;53.538;49.366;2023-04-03T08:04:21;26.63;;;1.80;;
67195;SDS011;54122;53.538;49.366;2023-04-03T08:06:48;25.30;;;2.20;;
67195;SDS011;54122;53.538;49.366;2023-04-03T08:09:15;11.65;;;1.70;;
67195;SDS011;54122;53.538;49.366;2023-04-03T08:11:42;39.10;;;1.83;;
67195;SDS011;54122;53.538;49.366;2023-04-03T08:14:10;33.55;;;1.65;;
67195;SDS011;54122;53.538;49.366;2023-04-03T08:16:45;25.90;;;1.73;;
67195;SDS011;54122;53.538;49.366;2023-04-03T08:19:13;20.63;;;1.50;;
67195;SDS011;54122;53.538;49.366;2023-04-03T08:21:42;13.77;;;1.38;;
67195;SDS011;54122;53.538;49.366;2023-04-03T08:24:09;19.30;;;1.60;;
67195;SDS011;54122;53.538;49.366;2023-04-03T08:26:36;33.72;;;1.75;;
67195;SDS011;54122;53.538;49.366;2023-04-03T08:29:02;30.05;;;1.95;;
67195;SDS011;54122;53.538;49.366;2023-04-03T08:34:16;28.58;;;1.83;;
67195;SDS011;54122;53.538;49.366;2023-04-03T08:36:43;45.30;;;6.07;;
67195;SDS011;54122;53.538;49.366;2023-04-03T08:39:28;19.75;;;1.60;;
67195;SDS011;54122;53.538;49.366;2023-04-03T08:41:55;22.45;;;2.13;;
67195;SDS011;54122;53.538;49.366;2023-04-03T08:47:23;32.78;;;2.00;;
67195;SDS011;54122;53.538;49.366;2023-04-03T08:50:12;27.55;;;2.13;;
67195;SDS011;54122;53.538;49.366;2023-04-03T08:52:44;34.15;;;1.50;;
67195;SDS011;54122;53.538;49.366;2023-04-03T08:55:28;22.63;;;1.60;;
67195;SDS011;54122;53.538;49.366;2023-04-03T08:58:26;24.17;;;1.70;;
67195;SDS011;54122;53.538;49.366;2023-04-03T09:00:59;24.67;;;1.67;;
67195;SDS011;54122;53.538;49.366;2023-04-03T09:03:32;32.80;;;2.10;;
67195;SDS011;54122;53.538;49.366;2023-04-03T09:06:05;33.00;;;1.67;;
67195;SDS011;54122;53.538;49.366;2023-04-03T09:08:50;23.98;;;1.38;;
67195;SDS011;54122;53.538;49.366;2023-04-03T09:19:21;28.88;;;1.98;;
67195;SDS011;54122;53.538;49.366;2023-04-03T09:22:13;29.58;;;1.85;;
67195;SDS011;54122;53.538;49.366;2023-04-03T09:28:09;23.88;;;3.33;;
67195;SDS011;54122;53.538;49.366;2023-04-03T09:30:54;22.77;;;1.98;;
67195;SDS011;54122;53.538;49.366;2023-04-03T09:33:20;32.85;;;1.83;;
67195;SDS011;54122;53.538;49.366;2023-04-03T09:38:33;23.75;;;1.70;;
67195;SDS011;54122;53.538;49.366;2023-04-03T09:41:07;38.70;;;2.40;;
67195;SDS011;54122;53.538;49.366;2023-04-03T09:43:40;29.67;;;1.95;;
67195;SDS011;54122;53.538;49.366;2023-04-03T09:46:24;18.02;;;1.60;;
67195;SDS011;54122;53.538;49.366;2023-04-03T09:48:58;19.88;;;1.67;;
67195;SDS011;54122;53.538;49.366;2023-04-03T09:51:31;39.65;;;2.33;;
67195;SDS011;54122;53.538;49.366;2023-04-03T09:53:58;47.10;;;1.80;;
67195;SDS011;54122;53.538;49.366;2023-04-03T09:56:26;20.27;;;2.13;;
67195;SDS011;54122;53.538;49.366;2023-04-03T09:59:14;37.92;;;2.97;;
67195;SDS011;54122;53.538;49.366;2023-04-03T10:01:43;21.10;;;2.17;;
67195;SDS011;54122;53.538;49.366;2023-04-03T10:04:27;30.27;;;2.30;;
67195;SDS011;54122;53.538;49.366;2023-04-03T10:07:26;30.75;;;2.53;;
67195;SDS011;54122;53.538;49.366;2023-04-03T10:12:45;34.75;;;1.65;;
67195;SDS011;54122;53.538;49.366;2023-04-03T10:15:12;27.90;;;1.77;;
67195;SDS011;54122;53.538;49.366;2023-04-03T10:18:26;16.70;;;2.03;;
67195;SDS011;54122;53.538;49.366;2023-04-03T10:20:48;25.23;;;2.10;;
67195;SDS011;54122;53.538;49.366;2023-04-03T10:23:21;28.08;;;2.00;;
67195;SDS011;54122;53.538;49.366;2023-04-03T10:28:43;31.05;;;2.40;;
67195;SDS011;54122;53.538;49.366;2023-04-03T10:37:05;40.83;;;2.00;;
67195;SDS011;54122;53.538;49.366;2023-04-03T10:39:59;31.15;;;2.88;;
67195;SDS011;54122;53.538;49.366;2023-04-03T10:45:26;41.38;;;2.38;;
67195;SDS011;54122;53.538;49.366;2023-04-03T10:48:21;28.35;;;1.70;;
67195;SDS011;54122;53.538;49.366;2023-04-03T10:50:58;30.13;;;2.17;;
67195;SDS011;54122;53.538;49.366;2023-04-03T10:53:36;32.17;;;3.50;;
67195;SDS011;54122;53.538;49.366;2023-04-03T11:01:44;40.25;;;2.53;;
67195;SDS011;54122;53.538;49.366;2023-04-03T11:04:17;36.67;;;2.50;;
67195;SDS011;54122;53.538;49.366;2023-04-03T11:06:50;25.35;;;2.47;;
67195;SDS011;54122;53.538;49.366;2023-04-03T11:09:28;28.88;;;3.47;;
67195;SDS011;54122;53.538;49.366;2023-04-03T11:12:13;31.08;;;3.53;;
67195;SDS011;54122;53.538;49.366;2023-04-03T11:14:53;36.50;;;3.60;;
67195;SDS011;54122;53.538;49.366;2023-04-03T11:17:27;23.48;;;2.05;;
67195;SDS011;54122;53.538;49.366;2023-04-03T11:23:26;14.65;;;1.77;;
67195;SDS011;54122;53.538;49.366;2023-04-03T11:26:01;23.40;;;1.90;;
67195;SDS011;54122;53.538;49.366;2023-04-03T11:28:40;25.50;;;2.47;;
67195;SDS011;54122;53.538;49.366;2023-04-03T11:37:11;33.35;;;2.38;;
67195;SDS011;54122;53.538;49.366;2023-04-03T11:39:47;30.92;;;1.88;;
67195;SDS011;54122;53.538;49.366;2023-04-03T11:42:36;28.42;;;2.10;;
67195;SDS011;54122;53.538;49.366;2023-04-03T12:01:56;19.45;;;1.92;;
67195;SDS011;54122;53.538;49.366;2023-04-03T12:04:26;23.40;;;2.38;;
67195;SDS011;54122;53.538;49.366;2023-04-03T12:06:59;34.53;;;2.22;;
67195;SDS011;54122;53.538;49.366;2023-04-03T12:12:56;36.28;;;2.50;;
67195;SDS011;54122;53.538;49.366;2023-04-03T12:16:00;49.83;;;2.42;;
67195;SDS011;54122;53.538;49.366;2023-04-03T12:24:55;28.00;;;2.30;;
67195;SDS011;54122;53.538;49.366;2023-04-03T12:27:23;34.85;;;2.28;;
67195;SDS011;54122;53.538;49.366;2023-04-03T12:35:37;27.08;;;2.03;;
67195;SDS011;54122;53.538;49.366;2023-04-03T12:41:01;49.10;;;2.08;;
67195;SDS011;54122;53.538;49.366;2023-04-03T12:46:28;30.45;;;1.90;;
67195;SDS011;54122;53.538;49.366;2023-04-03T12:54:56;45.42;;;2.75;;
67195;SDS011;54122;53.538;49.366;2023-04-03T12:57:24;22.17;;;1.88;;
67195;SDS011;54122;53.538;49.366;2023-04-03T12:59:53;26.92;;;1.90;;
67195;SDS011;54122;53.538;49.366;2023-04-03T13:08:23;26.20;;;1.75;;
67195;SDS011;54122;53.538;49.366;2023-04-03T13:10:50;21.08;;;1.92;;
67195;SDS011;54122;53.538;49.366;2023-04-03T13:13:35;18.42;;;1.60;;
67195;SDS011;54122;53.538;49.366;2023-04-03T13:16:10;26.52;;;1.67;;
67195;SDS011;54122;53.538;49.366;2023-04-03T13:18:37;38.13;;;2.42;;
67195;SDS011;54122;53.538;49.366;2023-04-03T13:21:08;30.90;;;1.50;;
67195;SDS011;54122;53.538;49.366;2023-04-03T13:23:44;28.17;;;1.60;;
67195;SDS011;54122;53.538;49.366;2023-04-03T13:26:31;25.83;;;1.77;;
67195;SDS011;54122;53.538;49.366;2023-04-03T13:29:06;18.30;;;1.80;;
67195;SDS011;54122;53.538;49.366;2023-04-03T13:31:42;27.48;;;1.85;;
67195;SDS011;54122;53.538;49.366;2023-04-03T13:36:36;42.15;;;1.70;;
67195;SDS011;54122;53.538;49.366;2023-04-03T13:39:28;22.75;;;1.48;;
67195;SDS011;54122;53.538;49.366;2023-04-03T13:41:56;19.30;;;1.50;;
67195;SDS011;54122;53.538;49.366;2023-04-03T13:44:42;18.27;;;1.70;;
67195;SDS011;54122;53.538;49.366;2023-04-03T13:47:37;22.10;;;1.55;;
67195;SDS011;54122;53.538;49.366;2023-04-03T13:52:48;32.15;;;1.83;;
67195;SDS011;54122;53.538;49.366;2023-04-03T13:58:24;27.83;;;1.80;;
67195;SDS011;54122;53.538;49.366;2023-04-03T14:00:53;29.98;;;1.73;;
67195;SDS011;54122;53.538;49.366;2023-04-03T14:09:05;21.98;;;1.88;;
67195;SDS011;54122;53.538;49.366;2023-04-03T14:11:32;42.88;;;2.03;;
67195;SDS011;54122;53.538;49.366;2023-04-03T14:14:05;62.70;;;3.47;;
67195;SDS011;54122;53.538;49.366;2023-04-03T14:16:40;42.05;;;1.98;;
67195;SDS011;54122;53.538;49.366;2023-04-03T14:19:17;20.30;;;1.48;;
67195;SDS011;54122;53.538;49.366;2023-04-03T14:21:49;30.90;;;1.45;;
67195;SDS011;54122;53.538;49.366;2023-04-03T14:24:16;41.75;;;1.40;;
67195;SDS011;54122;53.538;49.366;2023-04-03T14:26:43;31.33;;;1.70;;
67195;SDS011;54122;53.538;49.366;2023-04-03T14:29:10;25.55;;;1.90;;
67195;SDS011;54122;53.538;49.366;2023-04-03T14:31:37;47.78;;;1.63;;
67195;SDS011;54122;53.538;49.366;2023-04-03T14:34:03;34.25;;;2.05;;
67195;SDS011;54122;53.538;49.366;2023-04-03T14:36:30;24.40;;;1.73;;
67195;SDS011;54122;53.538;49.366;2023-04-03T14:38:57;27.45;;;2.17;;
67195;SDS011;54122;53.538;49.366;2023-04-03T14:41:25;32.03;;;1.92;;
67195;SDS011;54122;53.538;49.366;2023-04-03T14:43:52;33.78;;;3.00;;
67195;SDS011;54122;53.538;49.366;2023-04-03T14:46:24;34.35;;;2.47;;
67195;SDS011;54122;53.538;49.366;2023-04-03T14:48:51;35.78;;;2.30;;
67195;SDS011;54122;53.538;49.366;2023-04-03T14:51:19;55.88;;;2.72;;
67195;SDS011;54122;53.538;49.366;2023-04-03T14:53:46;54.75;;;3.63;;
67195;SDS011;54122;53.538;49.366;2023-04-03T14:56:23;35.10;;;2.58;;
67195;SDS011;54122;53.538;49.366;2023-04-03T14:58:54;38.00;;;2.78;;
67195;SDS011;54122;53.538;49.366;2023-04-03T15:01:22;31.33;;;2.25;;
67195;SDS011;54122;53.538;49.366;2023-04-03T15:06:53;31.98;;;2.17;;
67195;SDS011;54122;53.538;49.366;2023-04-03T15:11:50;29.42;;;2.35;;
67195;SDS011;54122;53.538;49.366;2023-04-03T15:14:17;50.85;;;2.38;;
67195;SDS011;54122;53.538;49.366;2023-04-03T15:17:02;20.40;;;1.83;;
67195;SDS011;54122;53.538;49.366;2023-04-03T15:19:32;36.38;;;2.60;;
67195;SDS011;54122;53.538;49.366;2023-04-03T15:22:02;31.63;;;2.38;;
67195;SDS011;54122;53.538;49.366;2023-04-03T15:24:29;48.58;;;3.40;;
67195;SDS011;54122;53.538;49.366;2023-04-03T15:27:14;34.35;;;3.25;;
67195;SDS011;54122;53.538;49.366;2023-04-03T15:29:41;29.65;;;2.35;;
67195;SDS011;54122;53.538;49.366;2023-04-03T15:32:08;29.95;;;2.13;;
67195;SDS011;54122;53.538;49.366;2023-04-03T15:34:36;39.45;;;2.42;;
67195;SDS011;54122;53.538;49.366;2023-04-03T15:37:02;33.22;;;2.75;;
67195;SDS011;54122;53.538;49.366;2023-04-03T15:39:30;36.97;;;2.17;;
67195;SDS011;54122;53.538;49.366;2023-04-03T15:41:59;36.95;;;2.38;;
67195;SDS011;54122;53.538;49.366;2023-04-03T15:44:32;26.88;;;2.13;;
67195;SDS011;54122;53.538;49.366;2023-04-03T15:47:01;23.02;;;2.00;;
67195;SDS011;54122;53.538;49.366;2023-04-03T15:49:28;32.90;;;2.75;;
67195;SDS011;54122;53.538;49.366;2023-04-03T15:52:14;33.95;;;1.73;;
67195;SDS011;54122;53.538;49.366;2023-04-03T15:54:40;21.63;;;2.08;;
67195;SDS011;54122;53.538;49.366;2023-04-03T15:57:06;23.85;;;2.28;;
67195;SDS011;54122;53.538;49.366;2023-04-03T15:59:38;30.55;;;2.30;;
67195;SDS011;54122;53.538;49.366;2023-04-03T16:02:06;37.47;;;2.67;;
67195;SDS011;54122;53.538;49.366;2023-04-03T16:04:35;31.42;;;1.85;;
67195;SDS011;54122;53.538;49.366;2023-04-03T16:07:03;28.17;;;2.05;;
67195;SDS011;54122;53.538;49.366;2023-04-03T16:09:30;39.63;;;2.72;;
67195;SDS011;54122;53.538;49.366;2023-04-03T16:11:59;32.63;;;2.17;;
67195;SDS011;54122;53.538;49.366;2023-04-03T16:14:26;24.60;;;1.60;;
67195;SDS011;54122;53.538;49.366;2023-04-03T16:17:10;33.70;;;2.33;;
67195;SDS011;54122;53.538;49.366;2023-04-03T16:19:36;22.88;;;2.03;;
67195;SDS011;54122;53.538;49.366;2023-04-03T16:22:21;23.02;;;2.50;;
67195;SDS011;54122;53.538;49.366;2023-04-03T16:24:50;34.53;;;2.33;;
67195;SDS011;54122;53.538;49.366;2023-04-03T16:27:16;43.40;;;3.33;;
67195;SDS011;54122;53.538;49.366;2023-04-03T16:29:42;40.33;;;2.78;;
67195;SDS011;54122;53.538;49.366;2023-04-03T16:35:30;32.10;;;2.05;;
67195;SDS011;54122;53.538;49.366;2023-04-03T16:40:44;26.08;;;3.33;;
67195;SDS011;54122;53.538;49.366;2023-04-03T16:43:10;25.17;;;3.17;;
67195;SDS011;54122;53.538;49.366;2023-04-03T16:45:37;28.50;;;3.33;;
67195;SDS011;54122;53.538;49.366;2023-04-03T16:48:03;33.30;;;3.67;;
67195;SDS011;54122;53.538;49.366;2023-04-03T16:53:22;48.97;;;3.08;;
67195;SDS011;54122;53.538;49.366;2023-04-03T16:55:51;44.53;;;3.17;;
67195;SDS011;54122;53.538;49.366;2023-04-03T16:58:17;43.58;;;3.65;;
67195;SDS011;54122;53.538;49.366;2023-04-03T17:00:44;30.27;;;3.47;;
67195;SDS011;54122;53.538;49.366;2023-04-03T17:03:12;37.97;;;3.65;;